Time;durP1;ratioP1;P1;durP2;ratioP2;P2;SDS_P1;SDS_P2;PMS_P1;PMS_P2;Temp;Humidity;BMP_temperature;BMP_pressure;BME280_temperature;BME280_humidity;BME280_pressure;Samples;Min_cycle;Max_cycle;Signal;HPM_P1;HPM_P2
2023/07/12 00:00:29;;;;;;;2.30;1.17;;;;;;;26.62;60.81;99488.00;5071638;28;20211;-68
2023/07/12 00:02:56;;;;;;;1.00;1.00;;;;;;;26.54;60.63;99484.47;5071825;28;20208;-68
2023/07/12 00:05:23;;;;;;;1.00;1.00;;;;;;;26.45;61.31;99474.81;5071665;28;20211;-68
2023/07/12 00:07:50;;;;;;;2.63;1.47;;;;;;;26.39;61.07;99476.22;5070669;28;20648;-68
2023/07/12 00:10:20;;;;;;;1.73;1.63;;;;;;;26.34;61.27;99477.63;5071620;28;20637;-68
2023/07/12 00:12:47;;;;;;;2.93;1.50;;;;;;;26.30;61.31;99481.53;5071633;28;20282;-68
2023/07/12 00:15:20;;;;;;;1.97;1.30;;;;;;;26.26;61.76;99482.78;5071514;28;20196;-68
2023/07/12 00:17:47;;;;;;;3.23;1.63;;;;;;;26.25;61.88;99486.38;5070896;28;20309;-68
2023/07/12 00:20:24;;;;;;;1.47;1.47;;;;;;;26.19;61.11;99473.81;5070885;28;20207;-68
2023/07/12 00:22:52;;;;;;;2.30;1.60;;;;;;;26.30;61.09;99471.00;5071422;28;20207;-68
2023/07/12 00:25:21;;;;;;;2.40;1.83;;;;;;;26.25;61.21;99467.97;5071402;28;20634;-68
2023/07/12 00:27:49;;;;;;;1.20;1.20;;;;;;;26.21;61.25;99472.69;5071056;28;20218;-68
2023/07/12 00:30:20;;;;;;;1.47;1.37;;;;;;;26.20;60.93;99472.84;5071348;28;20193;-68
2023/07/12 00:32:51;;;;;;;1.17;1.17;;;;;;;26.17;61.08;99475.75;5071143;28;20222;-68
2023/07/12 00:35:20;;;;;;;1.63;1.30;;;;;;;26.14;61.71;99476.81;5069748;28;20204;-68
2023/07/12 00:37:48;;;;;;;1.27;1.27;;;;;;;26.10;61.93;99476.31;5071151;28;20216;-68
2023/07/12 00:40:30;;;;;;;1.97;1.53;;;;;;;26.08;62.28;99475.59;5069362;28;20208;-68
2023/07/12 00:43:05;;;;;;;1.47;1.07;;;;;;;26.07;61.85;99476.56;5068508;28;20196;-68
2023/07/12 00:45:34;;;;;;;1.50;1.10;;;;;;;26.04;61.61;99476.84;5070305;28;20586;-68
2023/07/12 00:48:01;;;;;;;1.00;1.00;;;;;;;26.03;61.94;99474.38;5070903;28;20192;-68
2023/07/12 00:50:28;;;;;;;0.80;0.80;;;;;;;26.04;62.09;99470.78;5070914;28;20192;-68
2023/07/12 00:52:55;;;;;;;2.03;1.43;;;;;;;26.03;61.99;99475.22;5070943;28;20207;-68
2023/07/12 00:55:57;;;;;;;1.30;1.20;;;;;;;26.00;62.32;99472.88;5070836;28;20211;-68
2023/07/12 00:58:24;;;;;;;2.00;1.37;;;;;;;25.94;62.17;99465.56;5070644;28;20253;-68
2023/07/12 01:00:53;;;;;;;1.57;1.47;;;;;;;25.90;62.26;99464.19;5070882;28;20191;-68
2023/07/12 01:03:24;;;;;;;1.23;1.13;;;;;;;25.83;63.01;99473.59;5070342;28;20192;-68
2023/07/12 01:05:52;;;;;;;1.00;1.00;;;;;;;25.79;63.00;99461.69;5070516;28;20200;-68
2023/07/12 01:08:18;;;;;;;1.40;1.33;;;;;;;25.74;63.31;99466.56;5069658;28;20664;-68
2023/07/12 01:10:45;;;;;;;1.40;1.30;;;;;;;25.73;62.55;99467.50;5070940;28;20583;-68
2023/07/12 01:13:12;;;;;;;1.67;1.57;;;;;;;25.70;62.84;99462.53;5070405;28;20624;-68
2023/07/12 01:15:39;;;;;;;1.37;1.17;;;;;;;25.66;62.99;99458.53;5070630;28;20223;-68
2023/07/12 01:18:08;;;;;;;0.77;0.77;;;;;;;25.58;62.57;99459.25;5070287;28;20696;-68
2023/07/12 01:20:36;;;;;;;1.03;1.03;;;;;;;25.51;63.45;99457.31;5070736;28;20576;-68
2023/07/12 01:23:05;;;;;;;1.33;1.23;;;;;;;25.46;63.87;99449.00;5070306;28;20192;-68
2023/07/12 01:25:35;;;;;;;0.90;0.90;;;;;;;25.42;62.97;99447.63;5070231;28;20664;-69
2023/07/12 01:28:02;;;;;;;1.00;0.83;;;;;;;25.38;62.93;99444.44;5070125;28;20231;-68
2023/07/12 01:30:29;;;;;;;1.70;1.60;;;;;;;25.39;62.72;99443.50;5070455;28;20204;-68
2023/07/12 01:32:56;;;;;;;0.87;0.87;;;;;;;25.35;63.04;99447.34;5070415;28;20204;-68
2023/07/12 01:35:22;;;;;;;5.60;0.90;;;;;;;25.33;62.68;99438.75;5070080;28;20580;-68
2023/07/12 01:37:49;;;;;;;0.77;0.77;;;;;;;25.26;62.80;99439.47;5070058;28;20215;-68
2023/07/12 01:40:18;;;;;;;1.47;1.00;;;;;;;25.22;62.86;99440.72;5070093;28;20207;-68
2023/07/12 01:42:45;;;;;;;1.07;1.07;;;;;;;25.01;62.74;99425.91;5070468;28;20203;-68
2023/07/12 01:45:12;;;;;;;1.07;0.90;;;;;;;25.07;62.87;99448.97;5069862;28;20204;-68
2023/07/12 01:47:40;;;;;;;1.10;1.10;;;;;;;24.99;62.61;99445.38;5069732;28;20196;-68
2023/07/12 01:50:07;;;;;;;1.90;0.80;;;;;;;24.92;62.49;99442.47;5067387;28;20192;-68
2023/07/12 01:52:34;;;;;;;1.33;1.23;;;;;;;24.90;63.35;99441.78;5070334;28;20200;-68
2023/07/12 01:55:02;;;;;;;1.00;1.00;;;;;;;24.86;63.53;99445.66;5070568;28;20711;-68
2023/07/12 01:57:30;;;;;;;0.73;0.73;;;;;;;24.82;64.08;99448.66;5069968;28;20281;-68
2023/07/12 01:59:59;;;;;;;2.17;1.07;;;;;;;24.79;63.53;99452.34;5070497;28;20664;-68
2023/07/12 02:02:28;;;;;;;1.43;1.33;;;;;;;24.79;63.76;99444.50;5070064;28;20215;-68
2023/07/12 02:04:55;;;;;;;1.40;1.17;;;;;;;24.83;63.53;99451.16;5068860;28;20579;-68
2023/07/12 02:07:22;;;;;;;0.60;0.60;;;;;;;24.86;62.27;99445.66;5069877;28;20703;-68
2023/07/12 02:10:13;;;;;;;1.97;0.80;;;;;;;24.85;62.55;99448.38;5069834;28;20196;-68
2023/07/12 02:12:42;;;;;;;4.60;0.80;;;;;;;24.89;62.98;99458.50;5067586;28;20192;-68
2023/07/12 02:15:11;;;;;;;1.13;1.07;;;;;;;24.92;63.11;99460.84;5069747;28;20207;-68
2023/07/12 02:17:38;;;;;;;1.10;0.97;;;;;;;24.94;63.00;99464.16;5069727;28;20684;-68
2023/07/12 02:20:07;;;;;;;0.67;0.67;;;;;;;24.91;62.74;99453.94;5072742;28;20202;-68
2023/07/12 02:22:35;;;;;;;0.90;0.90;;;;;;;24.89;63.00;99447.16;5074174;28;20200;-68
2023/07/12 02:25:02;;;;;;;1.00;0.90;;;;;;;25.05;63.46;99471.91;5073812;28;20200;-68
2023/07/12 02:27:29;;;;;;;1.33;1.33;;;;;;;25.06;64.16;99473.56;5073635;28;20191;-68
2023/07/12 02:29:58;;;;;;;1.10;1.10;;;;;;;25.08;63.32;99471.63;5073760;28;20211;-68
2023/07/12 02:32:26;;;;;;;6.10;0.93;;;;;;;25.08;63.35;99466.38;5073648;28;20575;-68
2023/07/12 02:34:54;;;;;;;1.40;0.93;;;;;;;25.10;63.43;99468.88;5071749;28;20208;-68
2023/07/12 02:37:20;;;;;;;0.53;0.53;;;;;;;25.15;63.34;99465.84;5073263;28;20218;-68
2023/07/12 02:39:47;;;;;;;1.67;1.10;;;;;;;25.16;63.46;99467.50;5073286;28;20194;-68
2023/07/12 02:42:14;;;;;;;0.50;0.50;;;;;;;25.17;63.13;99469.16;5073388;28;20211;-68
2023/07/12 02:44:41;;;;;;;1.30;0.83;;;;;;;25.15;63.51;99473.72;5073836;28;20200;-68
2023/07/12 02:47:11;;;;;;;0.93;0.90;;;;;;;25.16;63.12;99470.97;5072845;28;20204;-68
2023/07/12 02:49:38;;;;;;;0.73;0.73;;;;;;;25.13;63.11;99473.03;5073678;28;20564;-68
2023/07/12 02:52:06;;;;;;;0.90;0.90;;;;;;;25.14;63.01;99482.56;5072915;28;20203;-68
2023/07/12 02:54:33;;;;;;;1.23;0.97;;;;;;;25.14;63.43;99490.44;5073272;28;20197;-68
2023/07/12 02:57:01;;;;;;;1.37;1.30;;;;;;;25.11;63.78;99477.56;5072469;28;20254;-68
2023/07/12 02:59:28;;;;;;;1.57;0.97;;;;;;;25.11;63.90;99486.25;5073078;28;20206;-69
2023/07/12 03:01:55;;;;;;;1.30;0.90;;;;;;;25.04;63.43;99480.72;5072966;28;20203;-68
2023/07/12 03:04:23;;;;;;;0.83;0.83;;;;;;;25.16;63.29;99493.75;5072800;28;20658;-68
2023/07/12 03:06:50;;;;;;;1.03;0.93;;;;;;;25.22;62.77;99499.28;5072821;28;20200;-68
2023/07/12 03:09:17;;;;;;;1.57;0.87;;;;;;;25.26;63.33;99498.03;5072768;28;20265;-68
2023/07/12 03:11:46;;;;;;;1.53;1.20;;;;;;;25.30;62.44;99496.78;5067892;28;20192;-68
2023/07/12 03:14:15;;;;;;;1.00;0.90;;;;;;;25.25;62.36;99492.91;5072583;28;20224;-68
2023/07/12 03:16:41;;;;;;;1.43;1.33;;;;;;;25.12;62.96;99481.84;5072785;28;20726;-68
2023/07/12 03:19:08;;;;;;;6.20;1.10;;;;;;;25.16;62.44;99496.38;5072100;28;20659;-68
2023/07/12 03:21:36;;;;;;;1.20;1.10;;;;;;;25.12;62.88;99497.59;5072686;28;20211;-68
2023/07/12 03:24:03;;;;;;;1.30;0.90;;;;;;;25.07;62.58;99500.63;5072069;28;20207;-68
2023/07/12 03:26:30;;;;;;;0.70;0.70;;;;;;;25.07;63.38;99498.03;5072410;28;20200;-68
2023/07/12 03:28:58;;;;;;;0.90;0.90;;;;;;;25.06;62.76;99498.97;5072622;28;20227;-69
2023/07/12 03:31:26;;;;;;;0.83;0.83;;;;;;;25.03;62.28;99497.47;5071122;28;20227;-68
2023/07/12 03:33:53;;;;;;;1.70;0.90;;;;;;;25.10;62.40;99499.53;5072609;28;20203;-68
2023/07/12 03:36:21;;;;;;;0.97;0.97;;;;;;;25.13;62.02;99499.25;5069752;28;20579;-68
2023/07/12 03:38:49;;;;;;;1.77;0.77;;;;;;;25.16;62.07;99509.47;5072349;28;20273;-68
2023/07/12 03:41:16;;;;;;;0.87;0.87;;;;;;;25.16;61.75;99504.25;5072045;28;20202;-68
2023/07/12 03:43:43;;;;;;;1.23;1.10;;;;;;;25.20;62.13;99505.63;5072298;28;20192;-68
2023/07/12 03:46:09;;;;;;;0.80;0.80;;;;;;;25.23;61.74;99521.09;5072286;28;20200;-68
2023/07/12 03:48:36;;;;;;;0.60;0.60;;;;;;;25.28;61.45;99513.63;5071891;28;20672;-68
2023/07/12 03:51:03;;;;;;;1.27;1.17;;;;;;;25.29;61.06;99517.94;5071938;28;20218;-68
2023/07/12 03:53:30;;;;;;;1.33;0.80;;;;;;;25.31;61.55;99518.59;5070529;28;20262;-68
2023/07/12 03:56:01;;;;;;;0.80;0.80;;;;;;;25.32;62.08;99510.63;5069989;28;20197;-68
2023/07/12 03:58:32;;;;;;;0.80;0.80;;;;;;;25.45;61.65;99520.84;5069693;28;20314;-68
2023/07/12 04:01:03;;;;;;;0.80;0.80;;;;;;;25.47;61.72;99519.72;5071258;28;20208;-68
2023/07/12 04:03:30;;;;;;;0.70;0.70;;;;;;;25.55;60.79;99519.91;5068240;28;20203;-68
2023/07/12 04:05:57;;;;;;;0.97;0.97;;;;;;;25.61;61.15;99521.16;5070775;28;20200;-68
2023/07/12 04:08:24;;;;;;;0.77;0.77;;;;;;;25.63;61.42;99519.22;5069755;28;20196;-68
2023/07/12 04:10:52;;;;;;;1.00;1.00;;;;;;;25.76;60.56;99525.00;5068890;28;20202;-68
2023/07/12 04:13:21;;;;;;;0.47;0.47;;;;;;;25.84;59.64;99525.16;5071141;28;20203;-68
2023/07/12 04:15:48;;;;;;;0.70;0.70;;;;;;;25.88;59.39;99534.38;5068779;28;20672;-68
2023/07/12 04:18:15;;;;;;;1.23;1.10;;;;;;;25.90;59.26;99532.47;5070909;28;20231;-68
2023/07/12 04:20:41;;;;;;;0.80;0.80;;;;;;;25.95;58.53;99534.66;5069144;28;20204;-68
2023/07/12 04:23:08;;;;;;;0.70;0.70;;;;;;;25.96;58.40;99534.53;5069051;28;20199;-68
2023/07/12 04:25:35;;;;;;;0.50;0.50;;;;;;;26.00;60.12;99538.53;5070973;28;20208;-68
2023/07/12 04:28:02;;;;;;;1.03;0.83;;;;;;;26.06;58.58;99537.97;5069329;28;20237;-68
2023/07/12 04:30:30;;;;;;;1.07;0.87;;;;;;;26.19;58.54;99542.13;5069219;28;20628;-68
2023/07/12 04:32:57;;;;;;;0.80;0.80;;;;;;;26.25;57.71;99547.66;5070399;28;20203;-68
2023/07/12 04:35:24;;;;;;;0.67;0.67;;;;;;;26.33;59.18;99541.69;5068859;28;20203;-68
2023/07/12 04:37:52;;;;;;;1.20;1.17;;;;;;;26.42;58.93;99543.47;5070530;28;20215;-68
2023/07/12 04:40:19;;;;;;;1.13;1.13;;;;;;;26.45;58.56;99543.16;5067940;28;20299;-68
2023/07/12 04:42:46;;;;;;;3.20;1.33;;;;;;;26.42;58.26;99539.03;5068744;28;20595;-68
2023/07/12 04:45:14;;;;;;;0.57;0.57;;;;;;;26.53;58.64;99551.16;5069403;28;20199;-68
2023/07/12 04:47:43;;;;;;;0.83;0.83;;;;;;;26.61;56.75;99543.41;5065545;28;20588;-68
2023/07/12 04:50:11;;;;;;;0.60;0.60;;;;;;;26.68;58.19;99549.75;5069801;28;20206;-68
2023/07/12 04:52:38;;;;;;;1.20;1.10;;;;;;;26.75;56.51;99540.31;5070753;28;20744;-68
2023/07/12 04:55:19;;;;;;;0.83;0.83;;;;;;;26.76;56.64;99534.03;5064545;28;20247;-68
2023/07/12 04:57:46;;;;;;;4.23;1.13;;;;;;;26.87;57.12;99539.16;5068375;28;20215;-69
2023/07/12 05:00:14;;;;;;;0.60;0.60;;;;;;;26.94;56.92;99545.50;5069453;28;20223;-72
2023/07/12 05:02:43;;;;;;;0.90;0.90;;;;;;;27.08;55.82;99547.63;5067382;28;20294;-70
2023/07/12 05:05:11;;;;;;;1.10;1.10;;;;;;;27.15;55.42;99542.59;5069214;28;20307;-70
2023/07/12 05:07:38;;;;;;;0.80;0.80;;;;;;;27.31;55.40;99548.03;5069841;28;20200;-70
2023/07/12 05:10:06;;;;;;;0.80;0.73;;;;;;;27.44;54.68;99547.69;5069304;28;20266;-70
2023/07/12 05:12:34;;;;;;;4.47;1.20;;;;;;;27.60;55.75;99553.94;5068794;28;20196;-70
2023/07/12 05:15:00;;;;;;;1.37;1.37;;;;;;;27.76;55.46;99552.44;5070517;28;20553;-69
2023/07/12 05:17:28;;;;;;;5.80;1.47;;;;;;;27.94;54.49;99555.91;5070506;28;20215;-69
2023/07/12 05:19:57;;;;;;;1.67;0.90;;;;;;;28.14;53.84;99552.94;5068373;28;20314;-70
2023/07/12 05:22:24;;;;;;;1.77;1.17;;;;;;;28.20;53.76;99545.41;5068967;28;20239;-70
2023/07/12 05:24:51;;;;;;;0.83;0.80;;;;;;;28.35;52.33;99546.47;5070123;28;20220;-69
2023/07/12 05:27:17;;;;;;;3.83;1.10;;;;;;;28.60;52.22;99557.00;5069916;28;20248;-70
2023/07/12 05:29:44;;;;;;;1.00;0.90;;;;;;;28.83;51.46;99552.03;5070069;28;20227;-70
2023/07/12 05:32:12;;;;;;;0.63;0.63;;;;;;;29.01;50.43;99547.50;5069815;28;20250;-70
2023/07/12 05:34:40;;;;;;;1.00;1.00;;;;;;;29.23;50.78;99551.38;5070234;28;20193;-70
2023/07/12 05:37:08;;;;;;;0.97;0.97;;;;;;;29.43;49.46;99551.94;5070206;28;20253;-70
2023/07/12 05:39:35;;;;;;;3.13;0.73;;;;;;;29.58;50.37;99547.66;5070061;28;20569;-70
2023/07/12 05:42:02;;;;;;;1.17;1.13;;;;;;;29.70;47.55;99554.25;5068975;28;20208;-70
2023/07/12 05:44:29;;;;;;;2.15;0.80;;;;;;;29.82;48.07;99552.13;5069624;28;20210;-70
2023/07/12 05:46:56;;;;;;;0.90;0.90;;;;;;;29.86;48.78;99554.31;5067097;28;20691;-70
2023/07/12 05:49:24;;;;;;;1.10;1.05;;;;;;;29.96;47.15;99560.25;5068250;28;20207;-70
2023/07/12 05:51:51;;;;;;;0.85;0.85;;;;;;;30.11;47.10;99568.34;5069079;28;20214;-70
2023/07/12 05:54:19;;;;;;;0.77;0.70;;;;;;;30.16;47.60;99561.56;5068630;28;20196;-70
2023/07/12 05:56:46;;;;;;;1.23;1.23;;;;;;;30.26;46.94;99565.84;5069371;28;20196;-70
2023/07/12 05:59:13;;;;;;;0.60;0.60;;;;;;;30.37;47.66;99568.16;5069494;28;20273;-70
2023/07/12 06:01:40;;;;;;;0.77;0.77;;;;;;;30.46;49.86;99572.47;5068361;28;20211;-70
2023/07/12 06:04:08;;;;;;;1.23;1.00;;;;;;;30.67;49.25;99575.38;5069580;28;20192;-70
2023/07/12 06:06:35;;;;;;;0.80;0.80;;;;;;;30.87;45.87;99575.81;5068072;28;20200;-69
2023/07/12 06:09:02;;;;;;;3.03;1.10;;;;;;;30.99;44.84;99577.94;5069623;28;20685;-70
2023/07/12 06:11:30;;;;;;;0.98;0.90;;;;;;;31.07;45.90;99577.91;5068669;28;20253;-70
2023/07/12 06:13:57;;;;;;;3.47;0.85;;;;;;;31.20;45.46;99575.53;5069068;28;20200;-70
2023/07/12 06:16:24;;;;;;;4.05;0.80;;;;;;;31.18;44.27;99582.78;5068882;28;20214;-70
2023/07/12 06:18:50;;;;;;;1.58;1.38;;;;;;;31.16;43.81;99576.88;5068455;28;20212;-69
2023/07/12 06:21:17;;;;;;;1.30;1.00;;;;;;;31.28;45.11;99568.53;5066142;28;20652;-69
2023/07/12 06:23:44;;;;;;;0.85;0.85;;;;;;;31.41;44.59;99566.13;5068702;28;20207;-70
2023/07/12 06:26:10;;;;;;;1.00;0.93;;;;;;;31.40;42.22;99561.84;5068608;28;20265;-69
2023/07/12 06:28:39;;;;;;;2.05;1.10;;;;;;;31.57;43.92;99569.50;5069544;28;20224;-68
2023/07/12 06:31:06;;;;;;;1.10;1.05;;;;;;;31.73;43.29;99563.25;5066962;28;20558;-68
2023/07/12 06:33:33;;;;;;;0.70;0.68;;;;;;;31.88;43.52;99561.50;5067892;28;20227;-67
2023/07/12 06:36:00;;;;;;;0.93;0.93;;;;;;;32.11;42.43;99570.28;5067455;28;20737;-69
2023/07/12 06:38:28;;;;;;;0.80;0.80;;;;;;;32.36;42.29;99570.88;5068368;28;20220;-66
2023/07/12 06:40:55;;;;;;;2.58;1.10;;;;;;;32.58;43.74;99574.47;5067052;28;20208;-66
2023/07/12 06:43:22;;;;;;;4.03;1.10;;;;;;;32.83;43.23;99562.56;5068527;28;20207;-67
2023/07/12 06:45:50;;;;;;;0.80;0.80;;;;;;;33.04;40.20;99575.09;5067460;28;20258;-67
2023/07/12 06:48:17;;;;;;;1.20;1.10;;;;;;;33.28;39.71;99572.16;5067094;28;20203;-67
2023/07/12 06:50:44;;;;;;;1.00;1.00;;;;;;;33.38;39.99;99571.84;5066145;28;20671;-67
2023/07/12 06:53:11;;;;;;;1.02;0.93;;;;;;;33.41;38.73;99568.81;5065732;28;20192;-67
2023/07/12 06:55:43;;;;;;;0.93;0.93;;;;;;;33.31;41.79;99566.47;5065780;28;20200;-67
2023/07/12 06:58:10;;;;;;;3.78;1.33;;;;;;;33.38;39.00;99563.88;5066562;28;20358;-67
2023/07/12 07:00:40;;;;;;;1.10;0.90;;;;;;;33.38;38.61;99561.22;5067903;28;20211;-68
2023/07/12 07:03:09;;;;;;;0.80;0.80;;;;;;;33.34;39.75;99562.59;5067270;28;20671;-64
2023/07/12 07:05:37;;;;;;;1.80;1.00;;;;;;;33.48;38.91;99567.84;5068588;28;20617;-64
2023/07/12 07:08:05;;;;;;;0.98;0.98;;;;;;;33.68;38.74;99552.97;5072240;28;20200;-65
2023/07/12 07:10:32;;;;;;;1.00;0.60;;;;;;;33.81;38.66;99557.56;5073068;28;20203;-65
2023/07/12 07:12:58;;;;;;;1.92;0.68;;;;;;;33.80;38.55;99549.81;5072612;28;20211;-64
2023/07/12 07:15:26;;;;;;;0.93;0.93;;;;;;;33.97;39.01;99562.63;5072700;28;20262;-65
2023/07/12 07:17:53;;;;;;;0.80;0.80;;;;;;;34.20;41.37;99557.94;5072847;28;20724;-64
2023/07/12 07:20:22;;;;;;;0.90;0.90;;;;;;;34.43;38.57;99557.66;5067102;28;20277;-64
2023/07/12 07:22:48;;;;;;;1.17;1.08;;;;;;;34.74;38.81;99560.72;5072602;28;20250;-65
2023/07/12 07:25:16;;;;;;;0.85;0.85;;;;;;;35.03;38.94;99548.97;5072688;28;20196;-65
2023/07/12 07:27:42;;;;;;;0.85;0.85;;;;;;;35.18;39.00;99557.69;5072588;28;20222;-64
2023/07/12 07:30:10;;;;;;;2.05;0.90;;;;;;;35.27;37.73;99563.63;5071975;28;20200;-65
2023/07/12 07:32:36;;;;;;;1.13;0.90;;;;;;;35.41;38.70;99561.84;5072530;28;20211;-65
2023/07/12 07:35:05;;;;;;;1.98;1.05;;;;;;;35.60;36.87;99550.41;5072283;28;20212;-64
2023/07/12 07:37:33;;;;;;;1.00;0.95;;;;;;;35.72;36.60;99564.78;5072452;28;20199;-64
2023/07/12 07:39:59;;;;;;;1.15;1.15;;;;;;;35.80;37.00;99556.59;5072457;28;20216;-64
2023/07/12 07:42:26;;;;;;;8.68;1.30;;;;;;;35.98;36.75;99562.13;5071368;28;20641;-64
2023/07/12 07:44:53;;;;;;;1.23;1.00;;;;;;;36.27;38.84;99564.41;5071761;28;20204;-65
2023/07/12 07:47:20;;;;;;;1.23;1.10;;;;;;;36.34;35.92;99575.06;5072649;28;20285;-64
2023/07/12 07:49:46;;;;;;;2.38;1.10;;;;;;;36.47;35.82;99564.38;5072718;28;20193;-64
2023/07/12 07:52:13;;;;;;;0.80;0.80;;;;;;;36.49;35.27;99566.81;5072506;28;20200;-65
2023/07/12 07:54:41;;;;;;;1.38;1.20;;;;;;;36.63;37.56;99568.47;5072691;28;20633;-65
2023/07/12 07:57:09;;;;;;;0.80;0.80;;;;;;;36.89;35.47;99563.03;5071664;28;20454;-65
2023/07/12 07:59:36;;;;;;;1.10;1.00;;;;;;;36.90;35.99;99567.31;5070673;28;20648;-65
2023/07/12 08:02:03;;;;;;;4.13;1.23;;;;;;;36.95;35.18;99564.03;5069593;28;20650;-65
2023/07/12 08:04:31;;;;;;;1.75;1.05;;;;;;;37.05;36.02;99562.59;5069759;28;20683;-65
2023/07/12 08:06:58;;;;;;;1.10;1.10;;;;;;;37.13;35.88;99559.66;5070667;28;20211;-65
2023/07/12 08:09:24;;;;;;;1.67;1.20;;;;;;;37.22;33.76;99558.34;5070601;28;20192;-64
2023/07/12 08:11:53;;;;;;;1.42;1.30;;;;;;;37.26;34.14;99570.28;5071124;28;20208;-64
2023/07/12 08:14:20;;;;;;;1.25;1.20;;;;;;;37.12;35.84;99568.72;5069695;28;20684;-64
2023/07/12 08:16:48;;;;;;;1.20;1.05;;;;;;;37.31;36.32;99567.78;5070876;28;20580;-65
2023/07/12 08:19:16;;;;;;;0.80;0.80;;;;;;;36.97;34.09;99562.78;5070650;28;20278;-64
2023/07/12 08:21:43;;;;;;;1.42;1.33;;;;;;;37.22;34.12;99563.69;5071268;28;20572;-64
2023/07/12 08:24:10;;;;;;;1.25;1.15;;;;;;;37.38;33.97;99561.59;5070418;28;20258;-64
2023/07/12 08:26:37;;;;;;;0.80;0.80;;;;;;;37.55;35.47;99565.38;5070083;28;20200;-64
2023/07/12 08:29:05;;;;;;;0.75;0.75;;;;;;;37.67;33.17;99558.34;5071270;28;20234;-64
2023/07/12 08:31:32;;;;;;;0.95;0.93;;;;;;;37.80;32.81;99560.91;5071425;28;20203;-64
2023/07/12 08:33:59;;;;;;;1.15;1.15;;;;;;;37.84;33.50;99546.84;5070167;28;20211;-65
2023/07/12 08:36:25;;;;;;;0.90;0.90;;;;;;;37.97;31.71;99553.19;5071315;28;20222;-65
2023/07/12 08:38:52;;;;;;;0.95;0.95;;;;;;;38.17;34.38;99557.31;5071292;28;20207;-65
2023/07/12 08:41:24;;;;;;;1.05;1.05;;;;;;;38.24;31.51;99551.88;5071290;28;20200;-65
2023/07/12 08:43:52;;;;;;;0.80;0.80;;;;;;;38.11;32.69;99542.13;5070460;28;20196;-65
2023/07/12 08:46:24;;;;;;;1.35;1.20;;;;;;;38.20;34.94;99545.31;5069806;28;20642;-64
2023/07/12 08:48:54;;;;;;;1.65;1.00;;;;;;;38.39;33.82;99554.25;5071158;28;20192;-64
2023/07/12 08:51:30;;;;;;;3.83;1.00;;;;;;;38.19;33.62;99549.84;5071152;28;20196;-65
2023/07/12 08:53:57;;;;;;;1.70;1.00;;;;;;;38.25;33.95;99557.03;5071009;28;20199;-64
2023/07/12 08:56:26;;;;;;;1.25;1.13;;;;;;;38.43;31.95;99558.94;5070994;28;20211;-64
2023/07/12 08:58:54;;;;;;;1.17;1.17;;;;;;;38.39;33.40;99559.63;5070843;28;20215;-64
2023/07/12 09:01:43;;;;;;;0.90;0.90;;;;;;;38.58;32.40;99558.59;5071027;28;20192;-64
2023/07/12 09:04:24;;;;;;;0.90;0.90;;;;;;;38.65;32.42;99561.97;5070895;28;20249;-65
2023/07/12 09:06:51;;;;;;;1.10;1.08;;;;;;;38.63;32.45;99566.75;5069853;28;20200;-64
2023/07/12 09:09:18;;;;;;;1.42;1.15;;;;;;;38.63;33.55;99566.75;5069135;28;20196;-64
2023/07/12 09:11:46;;;;;;;1.73;0.70;;;;;;;38.66;32.54;99558.28;5071129;28;20288;-65
2023/07/12 09:14:19;;;;;;;2.85;1.73;;;;;;;38.66;32.44;99555.59;5070634;28;20200;-64
2023/07/12 09:16:49;;;;;;;0.90;0.90;;;;;;;38.59;31.62;99560.19;5069227;28;20214;-64
2023/07/12 09:19:20;;;;;;;1.05;1.05;;;;;;;38.47;32.66;99556.63;5070612;28;20228;-64
2023/07/12 09:21:49;;;;;;;0.80;0.80;;;;;;;38.53;31.85;99547.69;5070764;28;20195;-64
2023/07/12 09:24:28;;;;;;;1.85;1.13;;;;;;;38.45;32.20;99558.72;5070452;28;20200;-64
2023/07/12 09:27:04;;;;;;;0.80;0.80;;;;;;;38.44;34.19;99557.09;5069189;28;20200;-64
2023/07/12 09:29:33;;;;;;;0.90;0.90;;;;;;;38.48;33.05;99542.22;5069789;28;20237;-64
2023/07/12 09:32:02;;;;;;;1.30;1.20;;;;;;;38.28;34.08;99551.25;5069531;28;20208;-65
2023/07/12 09:34:37;;;;;;;0.82;0.82;;;;;;;38.44;35.51;99549.88;5068979;28;20656;-63
2023/07/12 09:37:05;;;;;;;0.80;0.80;;;;;;;38.58;35.21;99554.00;5069880;28;20211;-64
2023/07/12 09:39:31;;;;;;;0.88;0.88;;;;;;;38.48;33.92;99556.44;5069603;28;20227;-64
2023/07/12 09:42:02;;;;;;;1.40;1.30;;;;;;;38.63;33.76;99553.34;5067061;28;20196;-63
2023/07/12 09:44:30;;;;;;;0.82;0.82;;;;;;;38.79;32.38;99558.13;5067843;28;20200;-67
2023/07/12 09:47:01;;;;;;;0.88;0.88;;;;;;;38.92;30.81;99555.31;5068521;28;20784;-67
2023/07/12 09:49:39;;;;;;;1.35;1.25;;;;;;;39.08;33.05;99554.69;5068935;28;20202;-66
2023/07/12 09:52:15;;;;;;;1.05;1.05;;;;;;;39.26;32.64;99561.91;5069341;28;20695;-66
2023/07/12 09:54:50;;;;;;;0.75;0.75;;;;;;;39.23;32.35;99547.03;5068205;28;20202;-66
2023/07/12 09:57:20;;;;;;;1.00;1.00;;;;;;;39.23;32.61;99544.34;5068780;28;20499;-66
2023/07/12 09:59:59;;;;;;;1.95;1.10;;;;;;;39.38;32.59;99538.63;5069657;28;20441;-65
2023/07/12 10:02:32;;;;;;;0.98;0.98;;;;;;;39.16;31.57;99553.56;5071254;28;20245;-64
2023/07/12 10:05:05;;;;;;;1.33;1.23;;;;;;;39.31;32.43;99527.97;5071180;28;20200;-65
2023/07/12 10:07:45;;;;;;;1.10;1.10;;;;;;;39.21;32.75;99522.31;5071174;28;20222;-65
2023/07/12 10:10:22;;;;;;;0.93;0.93;;;;;;;38.92;31.20;99523.13;5068382;28;20192;-65
2023/07/12 10:13:01;;;;;;;3.10;0.98;;;;;;;38.95;31.94;99520.00;5070870;28;20257;-65
2023/07/12 10:15:33;;;;;;;0.77;0.77;;;;;;;38.96;31.27;99520.81;5070749;28;20257;-65
2023/07/12 10:17:59;;;;;;;0.75;0.75;;;;;;;38.97;30.91;99512.53;5071315;28;20294;-65
2023/07/12 10:20:28;;;;;;;1.13;1.00;;;;;;;38.76;31.78;99496.91;5070924;28;20269;-64
2023/07/12 10:22:56;;;;;;;1.02;1.02;;;;;;;38.84;31.40;99499.31;5071136;28;20196;-64
2023/07/12 10:25:27;;;;;;;1.15;1.10;;;;;;;38.77;31.30;99499.38;5070802;28;20687;-65
2023/07/12 10:28:00;;;;;;;2.40;1.20;;;;;;;38.93;30.54;99487.25;5070975;28;20277;-65
2023/07/12 10:30:29;;;;;;;1.77;0.90;;;;;;;39.15;29.52;99491.06;5070846;28;20207;-65
2023/07/12 10:33:02;;;;;;;1.00;1.00;;;;;;;39.26;31.29;99486.81;5071097;28;20207;-65
2023/07/12 10:35:41;;;;;;;1.23;1.13;;;;;;;39.41;30.22;99483.69;5070983;28;20600;-64
2023/07/12 10:38:13;;;;;;;1.27;0.90;;;;;;;39.27;29.10;99478.50;5070924;28;20200;-64
2023/07/12 10:40:47;;;;;;;0.77;0.77;;;;;;;39.35;31.27;99488.09;5072513;28;20216;-65
2023/07/12 10:43:20;;;;;;;0.90;0.90;;;;;;;39.43;28.43;99481.56;5074339;28;20202;-65
2023/07/12 10:45:50;;;;;;;0.80;0.80;;;;;;;39.41;29.08;99470.25;5074811;28;20207;-65
2023/07/12 10:48:23;;;;;;;0.90;0.90;;;;;;;39.52;27.67;99474.84;5075013;28;20614;-65
2023/07/12 10:50:56;;;;;;;1.05;0.90;;;;;;;39.55;27.69;99472.47;5074313;28;20287;-65
2023/07/12 10:53:25;;;;;;;0.73;0.73;;;;;;;39.74;28.73;99478.63;5074213;28;20192;-65
2023/07/12 10:56:11;;;;;;;1.20;1.20;;;;;;;39.68;30.08;99469.59;5074464;28;20192;-64
2023/07/12 10:58:52;;;;;;;1.85;1.30;;;;;;;39.61;27.18;99468.91;5073284;28;20257;-65
2023/07/12 11:01:53;;;;;;;0.88;0.88;;;;;;;39.51;27.09;99462.47;5073154;28;20212;-66
2023/07/12 11:04:34;;;;;;;1.20;1.20;;;;;;;39.41;26.96;99462.22;5073299;28;20287;-65
2023/07/12 11:07:05;;;;;;;1.30;1.20;;;;;;;39.50;29.98;99455.44;5074054;28;20200;-65
2023/07/12 11:10:05;;;;;;;4.63;0.85;;;;;;;39.70;28.80;99466.72;5073982;28;20681;-65
2023/07/12 11:12:39;;;;;;;3.22;0.90;;;;;;;39.73;26.85;99460.88;5071282;28;20203;-65
2023/07/12 11:15:21;;;;;;;2.15;1.27;;;;;;;39.94;27.67;99462.16;5073415;28;20657;-65
2023/07/12 11:18:01;;;;;;;0.93;0.93;;;;;;;39.82;26.80;99459.47;5069422;28;20438;-64
2023/07/12 11:20:31;;;;;;;1.60;1.27;;;;;;;39.90;27.91;99451.06;5071626;28;20247;-65
2023/07/12 11:23:02;;;;;;;0.85;0.85;;;;;;;39.94;27.79;99454.91;5071330;28;20231;-64
2023/07/12 11:25:40;;;;;;;0.82;0.82;;;;;;;40.07;28.29;99451.19;5070254;28;20199;-64
2023/07/12 11:28:28;;;;;;;1.92;1.08;;;;;;;40.35;27.00;99446.69;5072147;28;20314;-63
2023/07/12 11:31:13;;;;;;;0.80;0.80;;;;;;;40.54;27.75;99447.38;5071694;28;20208;-65
2023/07/12 11:33:42;;;;;;;1.00;0.90;;;;;;;40.64;26.21;99446.75;5072017;28;20207;-70
2023/07/12 11:36:18;;;;;;;4.38;1.05;;;;;;;40.85;26.26;99438.00;5072341;28;20284;-64
2023/07/12 11:38:49;;;;;;;2.47;1.05;;;;;;;41.09;26.40;99427.97;5069457;28;20214;-65
2023/07/12 11:41:18;;;;;;;3.25;0.90;;;;;;;41.14;25.77;99426.16;5071401;28;20231;-65
2023/07/12 11:43:46;;;;;;;1.38;1.17;;;;;;;41.14;26.13;99428.84;5070134;28;20208;-65